createdAt,value
2023-05-09T00:01:08.422Z,96640.41
2023-05-09T00:03:38.637Z,96641.19
2023-05-09T00:06:09.517Z,96640.23
2023-05-09T00:08:41.198Z,96641.56
2023-05-09T00:11:11.628Z,96642.80
2023-05-09T00:13:43.894Z,96643.92
2023-05-09T00:16:14.309Z,96642.80
2023-05-09T00:18:44.729Z,96643.33
2023-05-09T00:21:15.912Z,96650.79
2023-05-09T00:23:46.857Z,96651.87
2023-05-09T00:26:17.514Z,96646.35
2023-05-09T00:28:47.932Z,96650.63
2023-05-09T00:31:18.409Z,96650.46
2023-05-09T00:33:49.749Z,96655.27
2023-05-09T00:36:20.416Z,96654.21
2023-05-09T00:38:50.986Z,96657.27
2023-05-09T00:41:21.639Z,96656.30
2023-05-09T00:43:51.994Z,96656.34
2023-05-09T00:46:24.271Z,96655.70
2023-05-09T00:48:55.025Z,96655.20
2023-05-09T00:51:25.754Z,96654.60
2023-05-09T00:53:56.468Z,96656.26
2023-05-09T00:56:26.825Z,96661.32
2023-05-09T00:58:58.121Z,96658.51
2023-05-09T01:01:29.008Z,96663.64
2023-05-09T01:03:59.832Z,96660.04
2023-05-09T01:06:39.418Z,96660.85
2023-05-09T01:09:18.454Z,96656.14
2023-05-09T01:11:56.416Z,96656.55
2023-05-09T01:14:42.593Z,96653.48
2023-05-09T01:17:17.375Z,96650.43
2023-05-09T01:20:06.198Z,96657.91
2023-05-09T01:22:38.674Z,96650.44
2023-05-09T01:25:19.940Z,96656.55
2023-05-09T01:27:58.408Z,96659.77
2023-05-09T01:30:30.323Z,96661.36
2023-05-09T01:33:01.938Z,96660.39
2023-05-09T01:35:33.856Z,96656.73
2023-05-09T01:38:05.815Z,96657.02
2023-05-09T01:40:36.934Z,96659.58
2023-05-09T01:43:09.825Z,96658.08
2023-05-09T01:45:41.181Z,96660.61
2023-05-09T01:48:12.908Z,96663.98
2023-05-09T01:50:45.463Z,96664.34
2023-05-09T01:53:16.101Z,96664.77
2023-05-09T01:55:47.311Z,96662.64
2023-05-09T01:58:17.815Z,96658.52
2023-05-09T02:00:49.687Z,96654.94
2023-05-09T02:03:20.914Z,96653.73
2023-05-09T02:05:52.302Z,96657.34
2023-05-09T02:08:24.259Z,96665.98
2023-05-09T02:10:54.799Z,96668.66
2023-05-09T02:13:25.259Z,96669.55
2023-05-09T02:15:56.870Z,96675.48
2023-05-09T02:18:29.657Z,96677.19
2023-05-09T02:21:00.689Z,96677.79
2023-05-09T02:23:31.727Z,96681.30
2023-05-09T02:26:03.157Z,96680.41
2023-05-09T02:28:33.422Z,96677.14
2023-05-09T02:31:06.635Z,96682.61
2023-05-09T02:33:38.359Z,96678.72
2023-05-09T02:36:11.300Z,96678.30
2023-05-09T02:38:42.472Z,96679.13
2023-05-09T02:41:15.764Z,96688.02
2023-05-09T02:43:47.002Z,96692.46
2023-05-09T02:46:17.578Z,96688.63
2023-05-09T02:48:47.826Z,96694.61
2023-05-09T02:51:19.099Z,96691.14
2023-05-09T02:53:49.259Z,96694.57
2023-05-09T02:56:19.836Z,96701.23
2023-05-09T02:58:51.093Z,96699.52
2023-05-09T03:01:23.504Z,96706.73
2023-05-09T03:03:54.512Z,96704.14
2023-05-09T03:06:25.192Z,96708.64
2023-05-09T03:08:55.730Z,96712.11
2023-05-09T03:11:25.903Z,96712.47
2023-05-09T03:13:57.451Z,96710.70
2023-05-09T03:16:27.892Z,96712.08
2023-05-09T03:18:58.319Z,96720.17
2023-05-09T03:21:28.822Z,96716.15
2023-05-09T03:23:59.864Z,96713.26
2023-05-09T03:26:30.087Z,96714.89
2023-05-09T03:29:00.586Z,96717.61
2023-05-09T03:31:31.598Z,96717.83
2023-05-09T03:34:01.885Z,96713.03
2023-05-09T03:36:32.939Z,96712.38
2023-05-09T03:39:03.421Z,96716.52
2023-05-09T03:41:35.885Z,96721.70
2023-05-09T03:44:07.323Z,96724.34
2023-05-09T03:46:37.632Z,96721.25
2023-05-09T03:49:08.078Z,96724.27
2023-05-09T03:51:39.978Z,96722.94
2023-05-09T03:54:12.238Z,96723.55
2023-05-09T03:56:42.814Z,96724.77
2023-05-09T03:59:13.793Z,96723.85
2023-05-09T04:01:44.986Z,96725.09
2023-05-09T04:04:15.476Z,96723.47
2023-05-09T04:06:46.307Z,96723.61
2023-05-09T04:09:16.569Z,96723.05
2023-05-09T04:11:47.024Z,96718.86
2023-05-09T04:14:18.070Z,96721.30
2023-05-09T04:16:48.390Z,96717.95
2023-05-09T04:19:18.641Z,96718.38
2023-05-09T04:21:48.862Z,96712.25
2023-05-09T04:24:19.115Z,96712.09
2023-05-09T04:26:49.521Z,96716.74
2023-05-09T04:29:20.067Z,96708.67
2023-05-09T04:31:50.791Z,96704.11
2023-05-09T04:34:21.186Z,96705.20
2023-05-09T04:36:52.206Z,96706.84
2023-05-09T04:39:23.510Z,96710.58
2023-05-09T04:41:55.014Z,96715.76
2023-05-09T04:44:26.626Z,96719.79
2023-05-09T04:46:57.903Z,96726.18
2023-05-09T04:49:28.671Z,96728.42
2023-05-09T04:51:59.049Z,96724.30
2023-05-09T04:54:29.489Z,96722.00
2023-05-09T04:57:09.923Z,96721.03
2023-05-09T04:59:47.240Z,96721.65
2023-05-09T05:02:17.569Z,96723.73
2023-05-09T05:04:47.907Z,96722.52
2023-05-09T05:07:18.750Z,96723.54
2023-05-09T05:09:49.240Z,96732.44
2023-05-09T05:12:19.977Z,96731.05
2023-05-09T05:14:50.365Z,96725.59
2023-05-09T05:17:20.590Z,96727.73
2023-05-09T05:19:51.735Z,96726.42
2023-05-09T05:22:22.919Z,96726.80
2023-05-09T05:24:53.463Z,96733.69
2023-05-09T05:27:23.801Z,96732.79
2023-05-09T05:29:57.109Z,96733.27
2023-05-09T05:32:28.212Z,96732.62
2023-05-09T05:34:58.639Z,96727.77
2023-05-09T05:37:28.971Z,96728.00
2023-05-09T05:39:59.664Z,96722.95
2023-05-09T05:42:29.923Z,96717.91
2023-05-09T05:45:04.179Z,96716.52
2023-05-09T05:47:35.077Z,96716.70
2023-05-09T05:50:08.670Z,96716.41
2023-05-09T05:52:39.238Z,96716.38
2023-05-09T05:55:10.689Z,96717.40
2023-05-09T05:57:41.154Z,96720.67
2023-05-09T06:00:15.151Z,96718.31
2023-05-09T06:02:45.813Z,96721.49
2023-05-09T06:05:16.693Z,96717.55
2023-05-09T06:07:47.806Z,96723.84
2023-05-09T06:10:18.450Z,96718.48
2023-05-09T06:12:49.326Z,96720.21
2023-05-09T06:15:19.824Z,96716.59
2023-05-09T06:17:50.852Z,96706.36
2023-05-09T06:20:22.473Z,96702.07
2023-05-09T06:22:53.513Z,96700.66
2023-05-09T06:25:24.486Z,96690.61
2023-05-09T06:27:55.553Z,96688.46
2023-05-09T06:30:26.989Z,96683.31
2023-05-09T06:32:58.586Z,96680.98
2023-05-09T06:35:32.618Z,96688.10
2023-05-09T06:38:02.943Z,96690.75
2023-05-09T06:40:33.430Z,96684.71
2023-05-09T06:43:04.524Z,96678.39
2023-05-09T06:45:35.086Z,96681.67
2023-05-09T06:48:08.067Z,96684.13
2023-05-09T06:50:38.863Z,96686.86
2023-05-09T06:53:09.798Z,96680.05
2023-05-09T06:55:46.385Z,96677.05
2023-05-09T06:58:17.074Z,96678.77
2023-05-09T07:00:49.461Z,96675.30
2023-05-09T07:03:19.902Z,96675.77
2023-05-09T07:05:52.380Z,96679.45
2023-05-09T07:08:22.638Z,96673.89
2023-05-09T07:10:52.950Z,96675.17
2023-05-09T07:13:23.418Z,96670.57
2023-05-09T07:15:55.811Z,96674.41
2023-05-09T07:18:29.515Z,96671.47
2023-05-09T07:21:02.481Z,96669.86
2023-05-09T07:23:32.702Z,96675.89
2023-05-09T07:26:03.232Z,96672.73
2023-05-09T07:28:34.064Z,96666.64
2023-05-09T07:31:05.672Z,96661.11
2023-05-09T07:33:36.120Z,96657.46
2023-05-09T07:36:08.128Z,96653.73
2023-05-09T07:38:39.897Z,96651.50
2023-05-09T07:41:12.340Z,96643.77
2023-05-09T07:43:44.345Z,96645.45
2023-05-09T07:46:15.476Z,96640.94
2023-05-09T07:48:57.339Z,96640.52
2023-05-09T07:51:28.259Z,96639.23
2023-05-09T07:54:04.485Z,96632.98
2023-05-09T07:56:41.242Z,96627.77
2023-05-09T07:59:12.728Z,96622.08
2023-05-09T08:01:43.048Z,96618.46
2023-05-09T08:04:13.924Z,96617.88
2023-05-09T08:06:44.408Z,96620.16
2023-05-09T08:09:14.830Z,96617.18
2023-05-09T08:11:45.028Z,96613.95
2023-05-09T08:14:17.418Z,96611.65
2023-05-09T08:16:47.827Z,96607.48
2023-05-09T08:19:20.777Z,96611.17
2023-05-09T08:21:51.357Z,96603.48
2023-05-09T08:24:22.123Z,96601.73
2023-05-09T08:26:52.401Z,96594.59
2023-05-09T08:29:23.495Z,96588.11
2023-05-09T08:31:54.210Z,96588.75
2023-05-09T08:34:26.182Z,96583.15
2023-05-09T08:36:59.400Z,96579.09
2023-05-09T08:39:30.078Z,96571.86
2023-05-09T08:42:01.663Z,96568.90
2023-05-09T08:44:32.512Z,96562.51
2023-05-09T08:47:05.560Z,96557.86
2023-05-09T08:49:37.510Z,96555.21
2023-05-09T08:52:11.882Z,96550.74
2023-05-09T08:54:42.801Z,96552.09
2023-05-09T08:57:13.053Z,96541.63
2023-05-09T08:59:45.309Z,96542.23
2023-05-09T09:02:16.344Z,96544.50
2023-05-09T09:04:48.491Z,96537.80
2023-05-09T09:07:20.861Z,96531.55
2023-05-09T09:10:03.498Z,96527.77
2023-05-09T09:12:35.279Z,96529.53
2023-05-09T09:15:08.101Z,96522.75
2023-05-09T09:17:43.725Z,96523.85
2023-05-09T09:20:16.651Z,96513.00
2023-05-09T09:22:49.912Z,96508.33
2023-05-09T09:25:20.756Z,96514.09
2023-05-09T09:27:52.219Z,96511.88
2023-05-09T09:30:26.311Z,96507.47
2023-05-09T09:32:56.988Z,96509.98
2023-05-09T09:35:28.273Z,96507.40
2023-05-09T09:38:03.006Z,96501.15
2023-05-09T09:40:34.286Z,96497.29
2023-05-09T09:43:08.094Z,96498.05
2023-05-09T09:45:41.219Z,96494.01
2023-05-09T09:48:14.246Z,96495.95
2023-05-09T09:50:46.983Z,96493.98
2023-05-09T09:53:17.372Z,96486.36
2023-05-09T09:55:57.258Z,96480.11
2023-05-09T09:58:36.607Z,96466.93
2023-05-09T10:01:10.038Z,96476.63
2023-05-09T10:03:41.863Z,96469.35
2023-05-09T10:06:14.869Z,96471.85
2023-05-09T10:08:47.246Z,96471.57
2023-05-09T10:11:18.340Z,96470.27
2023-05-09T10:13:48.623Z,96464.61
2023-05-09T10:16:25.816Z,96467.88
2023-05-09T10:19:02.447Z,96463.39
2023-05-09T10:21:32.851Z,96458.49
2023-05-09T10:24:05.638Z,96454.75
2023-05-09T10:26:39.095Z,96459.54
2023-05-09T10:29:12.299Z,96451.69
2023-05-09T10:31:43.857Z,96445.23
2023-05-09T10:34:14.773Z,96446.88
2023-05-09T10:36:45.593Z,96447.91
2023-05-09T10:39:16.728Z,96451.83
2023-05-09T10:41:49.599Z,96453.59
2023-05-09T10:44:20.642Z,96455.34
2023-05-09T10:46:51.201Z,96457.89
2023-05-09T10:49:22.197Z,96462.82
2023-05-09T10:51:53.021Z,96459.20
2023-05-09T10:54:33.066Z,96465.30
2023-05-09T10:57:05.578Z,96463.44
2023-05-09T10:59:37.894Z,96461.69
2023-05-09T11:02:14.363Z,96456.98
2023-05-09T11:04:46.447Z,96456.98
2023-05-09T11:07:29.962Z,96457.77
2023-05-09T11:10:13.667Z,96458.51
2023-05-09T11:13:00.627Z,96456.41
2023-05-09T11:15:31.905Z,96456.83
2023-05-09T11:18:10.809Z,96458.56
2023-05-09T11:20:46.143Z,96452.83
2023-05-09T11:23:17.644Z,96448.02
2023-05-09T11:25:49.433Z,96449.02
2023-05-09T11:28:29.538Z,96447.80
2023-05-09T11:31:11.777Z,96449.53
2023-05-09T11:33:43.525Z,96452.53
2023-05-09T11:36:25.081Z,96448.74
2023-05-09T11:39:07.835Z,96445.46
2023-05-09T11:41:46.959Z,96435.79
2023-05-09T11:44:21.230Z,96433.22
2023-05-09T11:46:51.961Z,96430.88
2023-05-09T11:49:25.094Z,96427.30
2023-05-09T11:51:57.080Z,96429.18
2023-05-09T11:54:27.581Z,96428.23
2023-05-09T11:56:59.723Z,96425.84
2023-05-09T11:59:30.057Z,96419.73
2023-05-09T12:02:05.777Z,96421.98
2023-05-09T12:04:39.540Z,96423.99
2023-05-09T12:07:13.145Z,96427.29
2023-05-09T12:09:44.524Z,96425.52
2023-05-09T12:12:20.531Z,96428.67
2023-05-09T12:14:51.966Z,96429.58
2023-05-09T12:17:22.912Z,96430.89
2023-05-09T12:19:54.050Z,96429.09
2023-05-09T12:22:29.671Z,96432.05
2023-05-09T12:25:02.403Z,96435.13
2023-05-09T12:27:33.419Z,96438.34
2023-05-09T12:30:08.242Z,96437.83
2023-05-09T12:32:39.842Z,96436.71
2023-05-09T12:35:11.550Z,96434.20
2023-05-09T12:37:58.287Z,96431.86
2023-05-09T12:40:31.159Z,96428.87
2023-05-09T12:43:04.100Z,96425.98
2023-05-09T12:45:39.134Z,96424.05
2023-05-09T12:48:11.726Z,96422.85
2023-05-09T12:50:47.604Z,96418.11
2023-05-09T12:53:25.479Z,96417.20
2023-05-09T12:56:03.408Z,96415.48
2023-05-09T12:58:33.949Z,96421.15
2023-05-09T13:01:05.853Z,96422.99
2023-05-09T13:03:38.254Z,96416.54
2023-05-09T13:06:14.738Z,96417.09
2023-05-09T13:08:46.040Z,96410.79
2023-05-09T13:11:18.957Z,96411.23
2023-05-09T13:13:49.165Z,96410.56
2023-05-09T13:16:19.494Z,96412.14
2023-05-09T13:18:49.998Z,96409.18
2023-05-09T13:21:20.695Z,96413.52
2023-05-09T13:23:52.196Z,96412.54
2023-05-09T13:26:22.720Z,96415.39
2023-05-09T13:28:55.015Z,96412.33
2023-05-09T13:31:28.685Z,96417.30
2023-05-09T13:34:00.305Z,96422.54
2023-05-09T13:36:31.498Z,96424.75
2023-05-09T13:39:01.856Z,96424.21
2023-05-09T13:41:34.504Z,96423.19
2023-05-09T13:44:06.377Z,96426.98
2023-05-09T13:46:37.378Z,96430.66
2023-05-09T13:49:10.313Z,96433.77
2023-05-09T13:51:40.744Z,96437.80
2023-05-09T13:54:12.845Z,96444.88
2023-05-09T13:56:43.368Z,96449.89
2023-05-09T13:59:13.657Z,96452.92
2023-05-09T14:01:43.881Z,96457.73
2023-05-09T14:04:16.618Z,96460.42
2023-05-09T14:06:48.336Z,96460.06
2023-05-09T14:09:22.268Z,96457.91
2023-05-09T14:11:52.956Z,96460.52
2023-05-09T14:14:24.210Z,96463.30
2023-05-09T14:16:54.674Z,96463.23
2023-05-09T14:19:26.750Z,96464.52
2023-05-09T14:21:57.163Z,96467.65
2023-05-09T14:24:30.857Z,96468.66
2023-05-09T14:27:01.414Z,96464.02
2023-05-09T14:29:31.996Z,96462.71
2023-05-09T14:32:02.502Z,96458.48
2023-05-09T14:34:33.100Z,96455.73
2023-05-09T14:37:03.490Z,96451.09
2023-05-09T14:39:33.680Z,96448.13
2023-05-09T14:42:05.661Z,96445.95
2023-05-09T14:44:36.356Z,96446.48
2023-05-09T14:47:10.008Z,96446.99
2023-05-09T14:49:41.114Z,96445.38
2023-05-09T14:52:11.814Z,96440.23
2023-05-09T14:54:42.867Z,96442.88
2023-05-09T14:57:20.853Z,96442.83
2023-05-09T14:59:51.213Z,96440.71
2023-05-09T15:02:21.556Z,96439.85
2023-05-09T15:04:51.956Z,96438.91
2023-05-09T15:07:22.384Z,96440.77
2023-05-09T15:09:52.604Z,96443.36
2023-05-09T15:12:23.318Z,96448.52
2023-05-09T15:14:55.561Z,96452.00
2023-05-09T15:17:26.679Z,96452.89
2023-05-09T15:19:58.999Z,96454.82
2023-05-09T15:22:33.781Z,96462.25
2023-05-09T15:25:06.213Z,96468.50
2023-05-09T15:27:36.985Z,96474.17
2023-05-09T15:30:08.946Z,96480.23
2023-05-09T15:32:42.623Z,96489.07
2023-05-09T15:35:14.205Z,96492.98
2023-05-09T15:37:45.965Z,96501.10
2023-05-09T15:40:17.295Z,96505.14
2023-05-09T15:42:48.875Z,96509.17
2023-05-09T15:45:19.908Z,96515.02
2023-05-09T15:47:50.181Z,96517.48
2023-05-09T15:50:21.074Z,96523.46
2023-05-09T15:52:52.736Z,96525.89
2023-05-09T15:55:23.298Z,96526.34
2023-05-09T15:57:53.725Z,96530.44
2023-05-09T16:00:28.019Z,96536.30
2023-05-09T16:03:02.172Z,96541.02
2023-05-09T16:05:32.713Z,96546.64
2023-05-09T16:08:03.081Z,96546.02
2023-05-09T16:10:34.423Z,96549.70
2023-05-09T16:13:04.915Z,96557.41
2023-05-09T16:15:35.809Z,96560.37
2023-05-09T16:18:07.891Z,96562.38
2023-05-09T16:20:39.232Z,96564.67
2023-05-09T16:23:10.467Z,96568.62
2023-05-09T16:25:41.424Z,96570.63
2023-05-09T16:28:16.685Z,96579.14
2023-05-09T16:30:48.979Z,96584.68
2023-05-09T16:33:19.902Z,96592.16
2023-05-09T16:35:53.697Z,96593.80
2023-05-09T16:38:24.406Z,96595.73
2023-05-09T16:40:55.559Z,96596.10
2023-05-09T16:43:27.174Z,96605.80
2023-05-09T16:45:59.998Z,96612.17
2023-05-09T16:48:34.117Z,96615.42
2023-05-09T16:51:08.886Z,96621.42
2023-05-09T16:53:39.496Z,96626.57
2023-05-09T16:56:10.865Z,96628.29
2023-05-09T16:58:41.610Z,96628.87
2023-05-09T17:01:11.936Z,96627.77
2023-05-09T17:03:44.223Z,96630.70
2023-05-09T17:06:15.781Z,96640.84
2023-05-09T17:08:47.031Z,96642.59
2023-05-09T17:11:17.692Z,96641.80
2023-05-09T17:13:51.390Z,96638.27
2023-05-09T17:16:25.661Z,96643.47
2023-05-09T17:18:56.093Z,96648.10
2023-05-09T17:21:28.922Z,96652.79
2023-05-09T17:23:59.428Z,96658.52
2023-05-09T17:26:30.323Z,96661.29
2023-05-09T17:29:00.758Z,96661.59
2023-05-09T17:31:31.808Z,96659.23
2023-05-09T17:34:02.036Z,96661.29
2023-05-09T17:36:34.575Z,96663.95
2023-05-09T17:39:07.465Z,96666.84
2023-05-09T17:41:38.165Z,96668.84
2023-05-09T17:44:08.508Z,96675.63
2023-05-09T17:46:39.035Z,96681.89
2023-05-09T17:49:14.205Z,96687.11
2023-05-09T17:51:45.132Z,96685.91
2023-05-09T17:54:15.625Z,96687.94
2023-05-09T17:56:46.334Z,96685.79
2023-05-09T17:59:16.528Z,96692.52
2023-05-09T18:01:46.795Z,96689.64
2023-05-09T18:04:19.039Z,96690.98
2023-05-09T18:06:50.637Z,96687.41
2023-05-09T18:09:23.798Z,96690.58
2023-05-09T18:12:00.172Z,96695.20
2023-05-09T18:14:30.553Z,96695.98
2023-05-09T18:17:03.072Z,96693.57
2023-05-09T18:19:35.509Z,96694.70
2023-05-09T18:22:07.007Z,96695.34
2023-05-09T18:24:37.831Z,96698.02
2023-05-09T18:27:08.452Z,96700.56
2023-05-09T18:29:45.298Z,96702.20
2023-05-09T18:32:16.056Z,96693.98
2023-05-09T18:34:50.236Z,96693.92
2023-05-09T18:37:22.831Z,96692.62
2023-05-09T18:39:55.380Z,96688.58
2023-05-09T18:42:26.964Z,96690.58
2023-05-09T18:44:57.558Z,96692.67
2023-05-09T18:47:28.743Z,96689.21
2023-05-09T18:50:02.347Z,96682.39
2023-05-09T18:52:34.008Z,96681.00
2023-05-09T18:55:08.299Z,96679.23
2023-05-09T18:57:42.139Z,96681.85
2023-05-09T19:00:16.255Z,96686.71
2023-05-09T19:02:46.948Z,96683.29
2023-05-09T19:05:17.349Z,96680.67
2023-05-09T19:07:47.692Z,96676.35
2023-05-09T19:10:20.790Z,96675.88
2023-05-09T19:12:51.315Z,96673.89
2023-05-09T19:15:23.157Z,96677.64
2023-05-09T19:17:55.756Z,96674.17
2023-05-09T19:20:30.523Z,96675.44
2023-05-09T19:23:02.366Z,96674.09
2023-05-09T19:25:33.510Z,96670.23
2023-05-09T19:28:03.997Z,96669.57
2023-05-09T19:30:35.737Z,96667.63
2023-05-09T19:33:06.379Z,96665.59
2023-05-09T19:35:38.026Z,96660.66
2023-05-09T19:38:11.630Z,96655.42
2023-05-09T19:40:42.213Z,96655.11
2023-05-09T19:43:15.617Z,96655.66
2023-05-09T19:45:46.194Z,96659.80
2023-05-09T19:48:16.871Z,96661.22
2023-05-09T19:50:48.073Z,96661.64
2023-05-09T19:53:18.343Z,96654.69
2023-05-09T19:55:48.657Z,96656.26
2023-05-09T19:58:19.034Z,96652.52
2023-05-09T20:00:51.264Z,96655.15
2023-05-09T20:03:21.601Z,96657.35
2023-05-09T20:05:55.143Z,96656.16
2023-05-09T20:08:25.801Z,96662.48
2023-05-09T20:10:57.021Z,96660.98
2023-05-09T20:13:27.294Z,96664.59
2023-05-09T20:15:58.718Z,96666.29
2023-05-09T20:18:29.266Z,96672.33
2023-05-09T20:20:59.396Z,96675.83
2023-05-09T20:23:31.785Z,96679.10
2023-05-09T20:26:02.546Z,96681.11
2023-05-09T20:28:33.430Z,96675.73
2023-05-09T20:31:03.607Z,96679.23
2023-05-09T20:33:35.094Z,96678.74
2023-05-09T20:36:09.008Z,96678.44
2023-05-09T20:38:39.670Z,96678.83
2023-05-09T20:41:10.161Z,96680.47
2023-05-09T20:43:40.339Z,96676.22
2023-05-09T20:46:10.794Z,96679.78
2023-05-09T20:48:40.952Z,96682.58
2023-05-09T20:51:11.450Z,96681.86
2023-05-09T20:53:41.908Z,96687.79
2023-05-09T20:56:12.010Z,96687.79
2023-05-09T20:58:42.415Z,96688.42
2023-05-09T21:01:12.912Z,96688.35
2023-05-09T21:03:43.515Z,96690.71
2023-05-09T21:06:13.750Z,96689.59
2023-05-09T21:08:44.979Z,96690.40
2023-05-09T21:11:17.418Z,96687.60
2023-05-09T21:13:47.678Z,96691.21
2023-05-09T21:16:17.972Z,96696.55
2023-05-09T21:18:48.311Z,96699.65
2023-05-09T21:21:18.917Z,96708.14
2023-05-09T21:23:50.009Z,96711.83
2023-05-09T21:26:21.126Z,96710.88
2023-05-09T21:28:51.527Z,96708.58
2023-05-09T21:31:21.896Z,96704.10
2023-05-09T21:33:52.444Z,96702.64
2023-05-09T21:36:22.832Z,96699.75
2023-05-09T21:38:52.835Z,96694.71
2023-05-09T21:41:23.815Z,96694.02
2023-05-09T21:43:54.420Z,96693.92
2023-05-09T21:46:25.309Z,96696.70
2023-05-09T21:48:55.494Z,96697.56
2023-05-09T21:51:25.642Z,96698.83
2023-05-09T21:53:56.135Z,96697.56
2023-05-09T21:56:26.316Z,96694.77
2023-05-09T21:58:57.341Z,96694.92
2023-05-09T22:01:31.103Z,96695.17
2023-05-09T22:04:02.392Z,96695.61
2023-05-09T22:06:32.617Z,96697.50
2023-05-09T22:09:03.018Z,96691.45
2023-05-09T22:11:33.263Z,96690.83
2023-05-09T22:14:03.444Z,96691.70
2023-05-09T22:16:33.972Z,96693.48
2023-05-09T22:19:04.590Z,96694.29
2023-05-09T22:21:34.689Z,96694.76
2023-05-09T22:24:06.808Z,96691.95
2023-05-09T22:26:37.142Z,96696.84
2023-05-09T22:29:07.364Z,96705.98
2023-05-09T22:31:38.774Z,96713.51
2023-05-09T22:34:09.027Z,96715.48
2023-05-09T22:36:39.264Z,96722.72
2023-05-09T22:39:09.436Z,96723.66
2023-05-09T22:41:39.934Z,96723.36
2023-05-09T22:44:10.135Z,96729.91
2023-05-09T22:46:40.392Z,96727.73
2023-05-09T22:49:10.747Z,96727.77
2023-05-09T22:51:41.090Z,96727.15
2023-05-09T22:54:11.451Z,96729.65
2023-05-09T22:56:42.828Z,96733.40
2023-05-09T22:59:14.259Z,96734.50
2023-05-09T23:01:44.661Z,96734.91
2023-05-09T23:04:16.318Z,96739.88
2023-05-09T23:06:49.790Z,96737.00
2023-05-09T23:09:20.806Z,96740.77
2023-05-09T23:11:51.462Z,96740.02
2023-05-09T23:14:21.949Z,96736.78
2023-05-09T23:16:52.447Z,96737.87
2023-05-09T23:19:22.938Z,96732.59
2023-05-09T23:21:53.661Z,96731.45
2023-05-09T23:24:23.898Z,96726.59
2023-05-09T23:26:55.441Z,96724.98
2023-05-09T23:29:26.122Z,96723.91
2023-05-09T23:31:56.425Z,96726.34
2023-05-09T23:34:26.734Z,96721.84
2023-05-09T23:36:57.023Z,96719.19
2023-05-09T23:39:27.551Z,96723.59
2023-05-09T23:41:58.252Z,96725.38
2023-05-09T23:44:28.569Z,96728.08
2023-05-09T23:46:58.949Z,96727.55
2023-05-09T23:49:29.529Z,96718.39
2023-05-09T23:51:59.791Z,96714.59
2023-05-09T23:54:30.382Z,96715.02
2023-05-09T23:57:00.816Z,96718.35
2023-05-09T23:59:31.222Z,96724.50
